createdAt,value
2017-07-05T00:00:55.186Z,0
2017-07-05T00:02:04.135Z,0
2017-07-05T00:03:13.359Z,0
2017-07-05T00:04:22.686Z,0
2017-07-05T00:05:31.828Z,0
2017-07-05T00:06:40.787Z,0
2017-07-05T00:07:49.709Z,0
2017-07-05T00:08:58.626Z,0
2017-07-05T00:10:07.547Z,0
2017-07-05T00:11:16.466Z,0
2017-07-05T00:12:25.390Z,0
2017-07-05T00:13:34.315Z,0
2017-07-05T00:14:43.243Z,0
2017-07-05T00:15:52.160Z,0
2017-07-05T00:17:03.604Z,0
2017-07-05T00:18:15.885Z,0
2017-07-05T00:19:27.840Z,0
2017-07-05T00:20:37.378Z,0
2017-07-05T00:21:46.346Z,0
2017-07-05T00:22:55.327Z,0
2017-07-05T00:24:04.265Z,0
2017-07-05T00:25:13.303Z,0
2017-07-05T00:26:22.349Z,0
2017-07-05T00:27:31.271Z,0
2017-07-05T00:28:40.537Z,0
2017-07-05T00:29:49.452Z,0
2017-07-05T00:30:58.381Z,0
2017-07-05T00:32:07.296Z,0
2017-07-05T00:33:16.220Z,0
2017-07-05T00:34:25.133Z,0
2017-07-05T00:35:34.070Z,0
2017-07-05T00:36:43.005Z,0
2017-07-05T00:37:52.025Z,0
2017-07-05T00:39:01.120Z,0
2017-07-05T00:40:10.078Z,0
2017-07-05T00:41:19.040Z,0
2017-07-05T00:42:27.956Z,0
2017-07-05T00:43:36.879Z,0
2017-07-05T00:44:46.196Z,0
2017-07-05T00:45:55.219Z,0
2017-07-05T00:47:04.281Z,0
2017-07-05T00:48:13.202Z,0
2017-07-05T00:49:22.286Z,0
2017-07-05T00:50:31.214Z,0
2017-07-05T00:51:40.229Z,0
2017-07-05T00:52:49.445Z,0
2017-07-05T00:53:58.444Z,0
2017-07-05T00:55:07.360Z,0
2017-07-05T00:56:16.352Z,0
2017-07-05T00:57:25.320Z,0
2017-07-05T00:58:34.246Z,0
2017-07-05T00:59:43.258Z,0
2017-07-05T01:00:52.173Z,0
2017-07-05T01:02:01.311Z,0
2017-07-05T01:03:10.419Z,0
2017-07-05T01:04:19.336Z,0
2017-07-05T01:05:28.251Z,0
2017-07-05T01:06:37.215Z,0
2017-07-05T01:07:46.139Z,0
2017-07-05T01:08:55.059Z,0
2017-07-05T01:10:03.976Z,0
2017-07-05T01:11:12.949Z,0
2017-07-05T01:12:21.821Z,0
2017-07-05T01:13:30.740Z,0
2017-07-05T01:14:39.683Z,0
2017-07-05T01:15:48.602Z,0
2017-07-05T01:16:57.519Z,0
2017-07-05T01:18:06.441Z,0
2017-07-05T01:19:15.355Z,0
2017-07-05T01:20:24.273Z,0
2017-07-05T01:21:33.192Z,0
2017-07-05T01:22:42.112Z,0
2017-07-05T01:23:51.034Z,0
2017-07-05T01:24:59.955Z,0
2017-07-05T01:26:08.883Z,0
2017-07-05T01:27:17.810Z,0
2017-07-05T01:28:26.726Z,0
2017-07-05T01:29:35.638Z,0
2017-07-05T01:30:44.560Z,0
2017-07-05T01:31:53.494Z,0
2017-07-05T01:33:02.411Z,0
2017-07-05T01:34:11.331Z,0
2017-07-05T01:35:20.256Z,0
2017-07-05T01:36:29.174Z,0
2017-07-05T01:37:38.183Z,0
2017-07-05T01:38:47.448Z,0
2017-07-05T01:39:56.372Z,0
2017-07-05T01:41:05.286Z,0
2017-07-05T01:42:14.210Z,0
2017-07-05T01:43:23.136Z,0
2017-07-05T01:44:32.060Z,0
2017-07-05T01:45:40.984Z,0
2017-07-05T01:46:49.905Z,0
2017-07-05T01:47:58.816Z,0
2017-07-05T01:49:07.745Z,0
2017-07-05T01:50:16.663Z,0
2017-07-05T01:51:25.585Z,0
2017-07-05T01:52:34.501Z,0
2017-07-05T01:53:43.424Z,0
2017-07-05T01:54:52.354Z,0
2017-07-05T01:56:01.269Z,0
2017-07-05T01:57:10.248Z,0
2017-07-05T01:58:19.196Z,0
2017-07-05T01:59:28.110Z,0
2017-07-05T02:00:37.032Z,0
2017-07-05T02:01:45.951Z,0
2017-07-05T02:02:54.872Z,0
2017-07-05T02:04:03.792Z,0
2017-07-05T02:05:12.714Z,0
2017-07-05T02:06:21.634Z,0
2017-07-05T02:07:30.554Z,0
2017-07-05T02:08:39.471Z,0
2017-07-05T02:09:48.388Z,0
2017-07-05T02:10:57.316Z,0
2017-07-05T02:12:06.238Z,0
2017-07-05T02:13:15.162Z,0
2017-07-05T02:14:24.082Z,0
2017-07-05T02:15:33.002Z,0
2017-07-05T02:16:41.927Z,0
2017-07-05T02:17:50.855Z,0
2017-07-05T02:18:59.778Z,0
2017-07-05T02:20:08.704Z,0
2017-07-05T02:21:17.621Z,0
2017-07-05T02:22:26.545Z,0
2017-07-05T02:23:35.803Z,0
2017-07-05T02:24:44.812Z,0
2017-07-05T02:25:53.738Z,0
2017-07-05T02:27:02.657Z,0
2017-07-05T02:28:11.573Z,0
2017-07-05T02:29:20.492Z,0
2017-07-05T02:30:29.411Z,0
2017-07-05T02:31:38.327Z,0
2017-07-05T02:32:47.258Z,0
2017-07-05T02:33:56.176Z,0
2017-07-05T02:35:05.096Z,0
2017-07-05T02:36:14.016Z,0
2017-07-05T02:37:22.938Z,0
2017-07-05T02:38:31.866Z,0
2017-07-05T02:39:40.784Z,0
2017-07-05T02:40:49.705Z,0
2017-07-05T02:41:58.618Z,0
2017-07-05T02:43:07.541Z,0
2017-07-05T02:44:16.466Z,0
2017-07-05T02:45:25.384Z,0
2017-07-05T02:46:34.306Z,0
2017-07-05T02:47:43.306Z,0
2017-07-05T02:48:52.219Z,0
2017-07-05T02:50:01.135Z,0
2017-07-05T02:51:10.058Z,0
2017-07-05T02:52:18.984Z,0
2017-07-05T02:53:27.994Z,0
2017-07-05T02:54:36.909Z,0
2017-07-05T02:55:45.838Z,0
2017-07-05T02:56:54.760Z,0
2017-07-05T02:58:03.766Z,0
2017-07-05T02:59:12.683Z,0
2017-07-05T03:00:21.605Z,0
2017-07-05T03:01:30.525Z,0
2017-07-05T03:02:39.438Z,0
2017-07-05T03:03:48.350Z,0
2017-07-05T03:04:57.271Z,0
2017-07-05T03:06:06.185Z,0
2017-07-05T03:07:15.112Z,0
2017-07-05T03:08:24.027Z,0
2017-07-05T03:09:32.947Z,0
2017-07-05T03:10:41.861Z,0
2017-07-05T03:11:50.864Z,0
2017-07-05T03:12:59.867Z,0
2017-07-05T03:14:08.780Z,0
2017-07-05T03:15:17.708Z,0
2017-07-05T03:16:26.630Z,0
2017-07-05T03:17:35.555Z,0
2017-07-05T03:18:44.474Z,0
2017-07-05T03:19:53.395Z,0
2017-07-05T03:21:02.316Z,0
2017-07-05T03:22:11.239Z,0
2017-07-05T03:23:20.158Z,0
2017-07-05T03:24:29.081Z,0
2017-07-05T03:25:38.002Z,0
2017-07-05T03:26:46.919Z,0
2017-07-05T03:27:55.840Z,0
2017-07-05T03:29:04.752Z,0
2017-07-05T03:30:13.670Z,0
2017-07-05T03:31:22.597Z,0
2017-07-05T03:32:31.604Z,0
2017-07-05T03:33:40.519Z,0
2017-07-05T03:34:49.437Z,0
2017-07-05T03:35:58.356Z,0
2017-07-05T03:37:07.273Z,5
2017-07-05T03:38:16.201Z,5
2017-07-05T03:39:25.119Z,5
2017-07-05T03:40:34.050Z,0
2017-07-05T03:41:42.966Z,0
2017-07-05T03:42:51.883Z,0
2017-07-05T03:44:00.897Z,5
2017-07-05T03:45:09.816Z,5
2017-07-05T03:46:18.827Z,5
2017-07-05T03:47:27.746Z,5
2017-07-05T03:48:36.662Z,5
2017-07-05T03:49:45.589Z,5
2017-07-05T03:50:54.507Z,5
2017-07-05T03:52:03.425Z,5
2017-07-05T03:53:12.702Z,5
2017-07-05T03:54:21.624Z,5
2017-07-05T03:55:30.554Z,5
2017-07-05T03:56:39.475Z,5
2017-07-05T03:57:48.388Z,5
2017-07-05T03:58:57.716Z,5
2017-07-05T04:00:06.634Z,5
2017-07-05T04:01:15.559Z,5
2017-07-05T04:02:24.480Z,5
2017-07-05T04:03:33.397Z,5
2017-07-05T04:04:42.317Z,5
2017-07-05T04:05:51.243Z,5
2017-07-05T04:07:00.160Z,10
2017-07-05T04:08:09.079Z,10
2017-07-05T04:09:17.999Z,10
2017-07-05T04:10:26.913Z,10
2017-07-05T04:11:35.832Z,10
2017-07-05T04:12:44.754Z,5
2017-07-05T04:13:53.683Z,5
2017-07-05T04:15:02.602Z,5
2017-07-05T04:16:11.521Z,5
2017-07-05T04:17:20.445Z,5
2017-07-05T04:18:29.397Z,5
2017-07-05T04:19:38.317Z,5
2017-07-05T04:20:47.236Z,5
2017-07-05T04:21:56.157Z,5
2017-07-05T04:23:05.075Z,5
2017-07-05T04:24:13.989Z,5
2017-07-05T04:25:22.912Z,5
2017-07-05T04:26:31.840Z,10
2017-07-05T04:27:40.768Z,5
2017-07-05T04:28:49.683Z,5
2017-07-05T04:29:58.601Z,5
2017-07-05T04:31:07.515Z,5
2017-07-05T04:32:16.436Z,5
2017-07-05T04:33:25.365Z,5
2017-07-05T04:34:34.281Z,5
2017-07-05T04:35:43.198Z,10
2017-07-05T04:36:52.216Z,10
2017-07-05T04:38:01.136Z,10
2017-07-05T04:39:10.058Z,10
2017-07-05T04:40:18.978Z,10
2017-07-05T04:41:27.901Z,10
2017-07-05T04:42:36.825Z,10
2017-07-05T04:43:45.747Z,10
2017-07-05T04:44:54.668Z,5
2017-07-05T04:46:03.590Z,5
2017-07-05T04:47:12.515Z,5
2017-07-05T04:48:21.442Z,5
2017-07-05T04:49:30.362Z,5
2017-07-05T04:50:39.282Z,10
2017-07-05T04:51:48.205Z,10
2017-07-05T04:52:57.125Z,10
2017-07-05T04:54:06.052Z,10
2017-07-05T04:55:14.971Z,10
2017-07-05T04:56:23.899Z,10
2017-07-05T04:57:32.824Z,15
2017-07-05T04:58:41.743Z,15
2017-07-05T04:59:50.755Z,15
2017-07-05T05:00:59.678Z,10
2017-07-05T05:02:08.598Z,10
2017-07-05T05:03:17.513Z,15
2017-07-05T05:04:26.449Z,15
2017-07-05T05:05:35.370Z,15
2017-07-05T05:06:44.290Z,15
2017-07-05T05:07:53.207Z,15
2017-07-05T05:09:02.126Z,15
2017-07-05T05:10:11.042Z,15
2017-07-05T05:11:19.960Z,15
2017-07-05T05:12:28.884Z,10
2017-07-05T05:13:38.122Z,10
2017-07-05T05:14:47.039Z,10
2017-07-05T05:15:55.961Z,5
2017-07-05T05:17:04.877Z,5
2017-07-05T05:18:13.805Z,5
2017-07-05T05:19:22.731Z,5
2017-07-05T05:20:31.648Z,10
2017-07-05T05:21:40.567Z,10
2017-07-05T05:22:49.491Z,10
2017-07-05T05:23:58.408Z,10
2017-07-05T05:25:07.333Z,10
2017-07-05T05:26:16.243Z,10
2017-07-05T05:27:25.166Z,10
2017-07-05T05:28:34.083Z,10
2017-07-05T05:29:43.094Z,10
2017-07-05T05:30:52.014Z,10
2017-07-05T05:32:00.941Z,10
2017-07-05T05:33:09.862Z,10
2017-07-05T05:34:18.788Z,10
2017-07-05T05:35:27.714Z,10
2017-07-05T05:36:36.632Z,10
2017-07-05T05:37:45.639Z,15
2017-07-05T05:38:54.561Z,10
2017-07-05T05:40:03.490Z,10
2017-07-05T05:41:12.407Z,10
2017-07-05T05:42:21.333Z,10
2017-07-05T05:43:30.253Z,10
2017-07-05T05:44:39.172Z,10
2017-07-05T05:45:48.097Z,10
2017-07-05T05:46:57.016Z,10
2017-07-05T05:48:05.936Z,15
2017-07-05T05:49:14.853Z,15
2017-07-05T05:50:23.767Z,15
2017-07-05T05:51:32.690Z,15
2017-07-05T05:52:41.610Z,15
2017-07-05T05:53:50.525Z,15
2017-07-05T05:54:59.446Z,15
2017-07-05T05:56:08.363Z,10
2017-07-05T05:57:17.298Z,10
2017-07-05T05:58:26.211Z,10
2017-07-05T05:59:35.123Z,5
2017-07-05T06:00:44.044Z,5
2017-07-05T06:01:52.973Z,5
2017-07-05T06:03:01.897Z,5
2017-07-05T06:04:10.817Z,5
2017-07-05T06:05:19.740Z,5
2017-07-05T06:06:28.655Z,5
2017-07-05T06:07:37.574Z,5
2017-07-05T06:08:46.489Z,5
2017-07-05T06:09:55.403Z,5
2017-07-05T06:11:04.321Z,5
2017-07-05T06:12:13.234Z,5
2017-07-05T06:13:22.147Z,5
2017-07-05T06:14:31.064Z,10
2017-07-05T06:15:39.980Z,10
2017-07-05T06:16:48.900Z,10
2017-07-05T06:17:57.820Z,15
2017-07-05T06:19:06.733Z,15
2017-07-05T06:20:15.645Z,15
2017-07-05T06:21:24.580Z,15
2017-07-05T06:22:33.628Z,10
2017-07-05T06:23:42.519Z,5
2017-07-05T06:24:51.447Z,5
2017-07-05T06:26:00.360Z,5
2017-07-05T06:27:09.281Z,5
2017-07-05T06:28:18.203Z,5
2017-07-05T06:29:27.125Z,5
2017-07-05T06:30:36.053Z,10
2017-07-05T06:31:44.972Z,10
2017-07-05T06:32:53.889Z,5
2017-07-05T06:34:02.895Z,5
2017-07-05T06:35:11.822Z,5
2017-07-05T06:36:20.739Z,10
2017-07-05T06:37:29.662Z,15
2017-07-05T06:38:38.581Z,15
2017-07-05T06:39:47.502Z,15
2017-07-05T06:40:56.424Z,10
2017-07-05T06:42:05.344Z,5
2017-07-05T06:43:14.259Z,5
2017-07-05T06:44:23.175Z,5
2017-07-05T06:45:32.103Z,10
2017-07-05T06:46:41.352Z,15
2017-07-05T06:47:50.269Z,15
2017-07-05T06:48:59.192Z,15
2017-07-05T06:50:08.111Z,10
2017-07-05T06:51:17.033Z,10
2017-07-05T06:52:25.960Z,10
2017-07-05T06:53:34.886Z,15
2017-07-05T06:54:43.803Z,15
2017-07-05T06:55:52.726Z,20
2017-07-05T06:57:01.643Z,20
2017-07-05T06:58:10.581Z,20
2017-07-05T06:59:19.548Z,20
2017-07-05T07:00:28.475Z,20
2017-07-05T07:01:37.791Z,20
2017-07-05T07:02:49.147Z,20
2017-07-05T07:03:58.062Z,25
2017-07-05T07:05:07.275Z,30
2017-07-05T07:06:16.469Z,30
2017-07-05T07:07:25.379Z,35
2017-07-05T07:08:34.293Z,35
2017-07-05T07:09:43.212Z,40
2017-07-05T07:10:52.133Z,45
2017-07-05T07:12:01.070Z,45
2017-07-05T07:13:09.991Z,45
2017-07-05T07:14:18.913Z,40
2017-07-05T07:15:27.831Z,40
2017-07-05T07:16:36.755Z,35
2017-07-05T07:17:45.678Z,40
2017-07-05T07:18:54.593Z,40
2017-07-05T07:20:03.513Z,30
2017-07-05T07:21:12.429Z,30
2017-07-05T07:22:21.346Z,35
2017-07-05T07:23:30.522Z,35
2017-07-05T07:24:39.558Z,35
2017-07-05T07:25:48.518Z,30
2017-07-05T07:26:57.612Z,30
2017-07-05T07:28:06.580Z,30
2017-07-05T07:29:15.554Z,30
2017-07-05T07:30:24.518Z,25
2017-07-05T07:31:33.433Z,25
2017-07-05T07:32:42.470Z,25
2017-07-05T07:33:51.389Z,25
2017-07-05T07:35:00.308Z,25
2017-07-05T07:36:09.295Z,25
2017-07-05T07:37:18.316Z,25
2017-07-05T07:38:27.378Z,30
2017-07-05T07:39:36.298Z,30
2017-07-05T07:40:45.438Z,30
2017-07-05T07:41:54.360Z,25
2017-07-05T07:43:03.322Z,30
2017-07-05T07:44:12.249Z,30
2017-07-05T07:45:21.197Z,30
2017-07-05T07:46:30.188Z,30
2017-07-05T07:47:39.135Z,25
2017-07-05T07:48:48.112Z,25
2017-07-05T07:49:57.222Z,20
2017-07-05T07:51:06.204Z,20
2017-07-05T07:52:15.122Z,20
2017-07-05T07:53:24.063Z,25
2017-07-05T07:54:33.122Z,25
2017-07-05T07:55:42.050Z,30
2017-07-05T07:56:51.089Z,35
2017-07-05T07:58:00.134Z,40
2017-07-05T07:59:09.143Z,45
2017-07-05T08:00:18.114Z,50
2017-07-05T08:01:27.032Z,55
2017-07-05T08:02:36.039Z,65
2017-07-05T08:03:44.987Z,65
2017-07-05T08:04:53.909Z,70
2017-07-05T08:06:02.829Z,70
2017-07-05T08:07:12.080Z,70
2017-07-05T08:08:20.995Z,75
2017-07-05T08:09:30.288Z,70
2017-07-05T08:10:39.624Z,60
2017-07-05T08:11:48.622Z,70
2017-07-05T08:12:57.809Z,70
2017-07-05T08:14:06.820Z,60
2017-07-05T08:15:15.951Z,55
2017-07-05T08:16:24.940Z,60
2017-07-05T08:17:34.036Z,70
2017-07-05T08:18:43.080Z,75
2017-07-05T08:19:52.150Z,85
2017-07-05T08:21:01.094Z,100
2017-07-05T08:22:10.135Z,105
2017-07-05T08:23:19.052Z,105
2017-07-05T08:24:27.965Z,105
2017-07-05T08:25:37.099Z,105
2017-07-05T08:26:46.087Z,90
2017-07-05T08:27:55.126Z,85
2017-07-05T08:29:04.541Z,90
2017-07-05T08:30:13.509Z,85
2017-07-05T08:31:22.511Z,95
2017-07-05T08:32:31.431Z,95
2017-07-05T08:33:40.742Z,90
2017-07-05T08:34:49.839Z,90
2017-07-05T08:35:58.871Z,95
2017-07-05T08:37:07.860Z,95
2017-07-05T08:38:16.778Z,105
2017-07-05T08:39:25.696Z,110
2017-07-05T08:40:34.618Z,120
2017-07-05T08:41:43.542Z,110
2017-07-05T08:42:52.454Z,100
2017-07-05T08:44:01.557Z,95
2017-07-05T08:45:10.659Z,105
2017-07-05T08:46:19.585Z,105
2017-07-05T08:47:28.780Z,110
2017-07-05T08:48:38.113Z,110
2017-07-05T08:49:47.755Z,135
2017-07-05T08:50:56.876Z,145
2017-07-05T08:52:05.820Z,165
2017-07-05T08:53:14.884Z,150
2017-07-05T08:54:23.881Z,160
2017-07-05T08:55:32.906Z,160
2017-07-05T08:56:41.814Z,165
2017-07-05T08:57:50.740Z,150
2017-07-05T08:58:59.658Z,155
2017-07-05T09:00:08.612Z,160
2017-07-05T09:01:17.896Z,160
2017-07-05T09:02:26.943Z,120
2017-07-05T09:03:35.963Z,145
2017-07-05T09:04:45.001Z,160
2017-07-05T09:05:54.063Z,185
2017-07-05T09:07:03.133Z,140
2017-07-05T09:08:12.128Z,150
2017-07-05T09:09:21.345Z,145
2017-07-05T09:10:30.264Z,160
2017-07-05T09:11:39.567Z,140
2017-07-05T09:12:48.989Z,125
2017-07-05T09:13:58.029Z,130
2017-07-05T09:15:07.442Z,110
2017-07-05T09:16:16.534Z,100
2017-07-05T09:17:25.617Z,100
2017-07-05T09:18:34.925Z,110
2017-07-05T09:19:43.961Z,115
2017-07-05T09:20:52.957Z,110
2017-07-05T09:22:01.964Z,115
2017-07-05T09:23:10.970Z,120
2017-07-05T09:24:20.017Z,120
2017-07-05T09:25:29.393Z,130
2017-07-05T09:26:38.486Z,120
2017-07-05T09:27:47.406Z,125
2017-07-05T09:28:56.446Z,130
2017-07-05T09:30:05.472Z,135
2017-07-05T09:31:14.483Z,165
2017-07-05T09:32:23.507Z,185
2017-07-05T09:33:32.610Z,165
2017-07-05T09:34:41.618Z,145
2017-07-05T09:35:50.615Z,105
2017-07-05T09:36:59.614Z,80
2017-07-05T09:38:08.581Z,60
2017-07-05T09:39:17.714Z,65
2017-07-05T09:40:26.666Z,70
2017-07-05T09:41:35.616Z,55
2017-07-05T09:42:44.543Z,45
2017-07-05T09:43:53.588Z,40
2017-07-05T09:45:02.590Z,40
2017-07-05T09:46:11.507Z,50
2017-07-05T09:47:20.429Z,55
2017-07-05T09:48:29.351Z,60
2017-07-05T09:49:38.396Z,70
2017-07-05T09:50:47.405Z,85
2017-07-05T09:52:07.511Z,105
2017-07-05T09:53:17.241Z,105
2017-07-05T09:54:26.164Z,75
2017-07-05T09:55:35.081Z,60
2017-07-05T09:56:44.005Z,55
2017-07-05T09:57:52.924Z,50
2017-07-05T09:59:01.849Z,50
2017-07-05T10:00:10.787Z,75
2017-07-05T10:01:19.729Z,125
2017-07-05T10:02:28.648Z,145
2017-07-05T10:03:37.565Z,100
2017-07-05T10:04:46.574Z,85
2017-07-05T10:05:55.489Z,70
2017-07-05T10:07:04.417Z,75
2017-07-05T10:08:13.344Z,130
2017-07-05T10:09:22.271Z,150
2017-07-05T10:10:31.191Z,110
2017-07-05T10:11:40.115Z,125
2017-07-05T10:12:49.032Z,105
2017-07-05T10:13:57.961Z,70
2017-07-05T10:15:06.888Z,40
2017-07-05T10:16:15.806Z,30
2017-07-05T10:17:24.723Z,45
2017-07-05T10:18:33.639Z,80
2017-07-05T10:19:42.559Z,150
2017-07-05T10:20:51.480Z,105
2017-07-05T10:22:00.398Z,85
2017-07-05T10:23:09.323Z,55
2017-07-05T10:24:18.246Z,95
2017-07-05T10:25:27.165Z,110
2017-07-05T10:26:36.509Z,70
2017-07-05T10:27:45.433Z,60
2017-07-05T10:28:54.357Z,60
2017-07-05T10:30:03.275Z,75
2017-07-05T10:31:12.192Z,105
2017-07-05T10:32:21.129Z,165
2017-07-05T10:33:30.048Z,155
2017-07-05T10:34:38.972Z,135
2017-07-05T10:35:47.890Z,120
2017-07-05T10:36:56.816Z,85
2017-07-05T10:38:05.732Z,115
2017-07-05T10:39:14.651Z,95
2017-07-05T10:40:23.567Z,55
2017-07-05T10:41:32.537Z,45
2017-07-05T10:42:41.808Z,80
2017-07-05T10:43:50.742Z,85
2017-07-05T10:44:59.998Z,90
2017-07-05T10:46:08.925Z,105
2017-07-05T10:47:17.846Z,85
2017-07-05T10:48:26.773Z,75
2017-07-05T10:49:35.687Z,70
2017-07-05T10:50:44.608Z,80
2017-07-05T10:51:53.529Z,60
2017-07-05T10:53:02.459Z,80
2017-07-05T10:54:11.373Z,105
2017-07-05T10:55:20.297Z,90
2017-07-05T10:56:29.218Z,70
2017-07-05T10:57:38.220Z,70
2017-07-05T10:58:47.136Z,60
2017-07-05T10:59:56.061Z,60
2017-07-05T11:01:04.985Z,70
2017-07-05T11:02:13.910Z,75
2017-07-05T11:03:22.830Z,125
2017-07-05T11:04:31.761Z,125
2017-07-05T11:05:40.686Z,115
2017-07-05T11:06:49.607Z,115
2017-07-05T11:07:58.522Z,115
2017-07-05T11:09:07.446Z,110
2017-07-05T11:10:16.369Z,135
2017-07-05T11:11:25.291Z,105
2017-07-05T11:12:34.211Z,70
2017-07-05T11:13:43.139Z,90
2017-07-05T11:14:52.058Z,120
2017-07-05T11:16:00.979Z,105
2017-07-05T11:17:09.908Z,145
2017-07-05T11:18:18.837Z,130
2017-07-05T11:19:27.762Z,75
2017-07-05T11:20:36.683Z,75
2017-07-05T11:21:45.602Z,80
2017-07-05T11:22:54.528Z,75
2017-07-05T11:24:03.453Z,50
2017-07-05T11:25:12.377Z,45
2017-07-05T11:26:21.303Z,40
2017-07-05T11:27:30.231Z,35
2017-07-05T11:28:39.157Z,30
2017-07-05T11:29:48.077Z,30
2017-07-05T11:30:56.998Z,35
2017-07-05T11:32:05.922Z,40
2017-07-05T11:33:14.848Z,45
2017-07-05T11:34:23.770Z,40
2017-07-05T11:35:32.697Z,40
2017-07-05T11:36:41.619Z,50
2017-07-05T11:37:50.546Z,80
2017-07-05T11:38:59.461Z,100
2017-07-05T11:40:08.381Z,100
2017-07-05T11:41:17.303Z,110
2017-07-05T11:42:26.226Z,120
2017-07-05T11:43:35.487Z,95
2017-07-05T11:44:44.404Z,105
2017-07-05T11:45:53.323Z,95
2017-07-05T11:47:02.251Z,105
2017-07-05T11:48:11.174Z,125
2017-07-05T11:49:20.095Z,110
2017-07-05T11:50:29.020Z,110
2017-07-05T11:51:37.939Z,70
2017-07-05T11:52:46.865Z,105
2017-07-05T11:53:55.794Z,85
2017-07-05T11:55:05.050Z,85
2017-07-05T11:56:14.062Z,85
2017-07-05T11:57:22.990Z,65
2017-07-05T11:58:31.912Z,40
2017-07-05T11:59:40.835Z,40
2017-07-05T12:00:49.756Z,45
2017-07-05T12:01:58.686Z,100
2017-07-05T12:03:07.610Z,105
2017-07-05T12:04:16.534Z,100
2017-07-05T12:05:25.453Z,80
2017-07-05T12:06:34.378Z,70
2017-07-05T12:07:43.296Z,70
2017-07-05T12:08:52.213Z,65
2017-07-05T12:10:01.129Z,75
2017-07-05T12:11:10.382Z,70
2017-07-05T12:12:19.305Z,70
2017-07-05T12:13:28.234Z,75
2017-07-05T12:14:37.162Z,85
2017-07-05T12:15:46.083Z,80
2017-07-05T12:16:55.010Z,85
2017-07-05T12:18:03.935Z,70
2017-07-05T12:19:12.848Z,105
2017-07-05T12:20:21.767Z,100
2017-07-05T12:21:30.696Z,70
2017-07-05T12:22:39.708Z,65
2017-07-05T12:23:48.628Z,85
2017-07-05T12:24:57.548Z,95
2017-07-05T12:26:06.480Z,80
2017-07-05T12:27:15.407Z,80
2017-07-05T12:28:24.330Z,85
2017-07-05T12:29:33.248Z,90
2017-07-05T12:30:42.173Z,105
2017-07-05T12:31:51.100Z,90
2017-07-05T12:33:00.357Z,105
2017-07-05T12:34:09.356Z,95
2017-07-05T12:35:18.280Z,90
2017-07-05T12:36:27.199Z,85
2017-07-05T12:37:36.126Z,85
2017-07-05T12:38:45.051Z,75
2017-07-05T12:39:53.969Z,85
2017-07-05T12:41:02.894Z,90
2017-07-05T12:42:11.811Z,90
2017-07-05T12:43:20.727Z,100
2017-07-05T12:44:29.647Z,85
2017-07-05T12:45:38.574Z,85
2017-07-05T12:46:47.503Z,110
2017-07-05T12:47:56.424Z,80
2017-07-05T12:49:05.432Z,85
2017-07-05T12:50:14.355Z,85
2017-07-05T12:51:23.276Z,120
2017-07-05T12:52:32.191Z,90
2017-07-05T12:53:41.115Z,110
2017-07-05T12:54:50.033Z,120
2017-07-05T12:55:58.952Z,105
2017-07-05T12:57:07.873Z,105
2017-07-05T12:58:16.793Z,75
2017-07-05T12:59:25.718Z,70
2017-07-05T13:00:34.651Z,70
2017-07-05T13:01:43.659Z,100
2017-07-05T13:02:52.580Z,90
2017-07-05T13:04:01.502Z,85
2017-07-05T13:05:10.424Z,85
2017-07-05T13:06:19.346Z,85
2017-07-05T13:07:28.264Z,70
2017-07-05T13:08:37.181Z,45
2017-07-05T13:09:46.105Z,90
2017-07-05T13:10:55.049Z,45
2017-07-05T13:12:03.999Z,45
2017-07-05T13:13:12.948Z,40
2017-07-05T13:14:21.896Z,35
2017-07-05T13:15:30.843Z,75
2017-07-05T13:16:39.789Z,80
2017-07-05T13:17:48.737Z,80
2017-07-05T13:18:57.679Z,65
2017-07-05T13:20:06.622Z,95
2017-07-05T13:21:15.571Z,50
2017-07-05T13:22:24.516Z,90
2017-07-05T13:23:33.466Z,45
2017-07-05T13:24:42.419Z,40
2017-07-05T13:25:51.369Z,75
2017-07-05T13:27:00.411Z,45
2017-07-05T13:28:09.354Z,45
2017-07-05T13:29:18.298Z,70
2017-07-05T13:30:27.325Z,50
2017-07-05T13:31:36.268Z,50
2017-07-05T13:32:45.214Z,50
2017-07-05T13:33:54.169Z,55
2017-07-05T13:35:03.114Z,50
2017-07-05T13:36:12.063Z,60
2017-07-05T13:37:21.011Z,50
2017-07-05T13:38:29.968Z,65
2017-07-05T13:39:38.919Z,35
2017-07-05T13:40:47.867Z,45
2017-07-05T13:41:56.817Z,50
2017-07-05T13:43:05.763Z,60
2017-07-05T13:44:14.702Z,55
2017-07-05T13:45:23.655Z,50
2017-07-05T13:46:32.610Z,75
2017-07-05T13:47:41.564Z,55
2017-07-05T13:48:50.517Z,95
2017-07-05T13:49:59.469Z,95
2017-07-05T13:51:08.531Z,90
2017-07-05T13:52:17.485Z,90
2017-07-05T13:53:26.431Z,95
2017-07-05T13:54:35.372Z,90
2017-07-05T13:55:44.332Z,50
2017-07-05T13:56:53.373Z,50
2017-07-05T13:58:02.382Z,50
2017-07-05T13:59:11.269Z,45
2017-07-05T14:00:20.222Z,50
2017-07-05T14:01:29.164Z,55
2017-07-05T14:02:38.117Z,60
2017-07-05T14:03:47.062Z,60
2017-07-05T14:04:56.006Z,60
2017-07-05T14:06:05.045Z,50
2017-07-05T14:07:13.990Z,45
2017-07-05T14:08:22.934Z,45
2017-07-05T14:09:31.890Z,55
2017-07-05T14:10:40.847Z,65
2017-07-05T14:11:50.342Z,90
2017-07-05T14:12:59.292Z,90
2017-07-05T14:14:08.237Z,90
2017-07-05T14:15:17.198Z,85
2017-07-05T14:16:26.195Z,40
2017-07-05T14:17:35.149Z,35
2017-07-05T14:18:44.094Z,35
2017-07-05T14:19:53.035Z,45
2017-07-05T14:21:01.990Z,75
2017-07-05T14:22:10.937Z,85
2017-07-05T14:23:19.889Z,55
2017-07-05T14:24:29.006Z,90
2017-07-05T14:25:37.963Z,90
2017-07-05T14:26:46.906Z,90
2017-07-05T14:27:55.858Z,80
2017-07-05T14:29:04.800Z,40
2017-07-05T14:30:13.748Z,50
2017-07-05T14:31:22.694Z,50
2017-07-05T14:32:31.645Z,55
2017-07-05T14:33:40.591Z,55
2017-07-05T14:34:49.533Z,80
2017-07-05T14:35:58.486Z,95
2017-07-05T14:37:07.435Z,95
2017-07-05T14:38:16.381Z,50
2017-07-05T14:39:25.660Z,50
2017-07-05T14:40:34.613Z,40
2017-07-05T14:41:43.647Z,35
2017-07-05T14:42:52.599Z,30
2017-07-05T14:44:01.540Z,30
2017-07-05T14:45:10.492Z,30
2017-07-05T14:46:19.444Z,25
2017-07-05T14:47:28.472Z,25
2017-07-05T14:48:37.420Z,25
2017-07-05T14:49:46.379Z,30
2017-07-05T14:50:55.409Z,30
2017-07-05T14:52:04.351Z,40
2017-07-05T14:53:13.300Z,45
2017-07-05T14:54:22.250Z,65
2017-07-05T14:55:31.200Z,80
2017-07-05T14:56:40.146Z,70
2017-07-05T14:57:49.069Z,65
2017-07-05T14:58:58.000Z,65
2017-07-05T15:00:06.926Z,60
2017-07-05T15:01:15.849Z,50
2017-07-05T15:02:24.776Z,60
2017-07-05T15:03:34.214Z,60
2017-07-05T15:04:43.357Z,60
2017-07-05T15:05:52.338Z,60
2017-07-05T15:07:01.476Z,35
2017-07-05T15:08:10.772Z,30
2017-07-05T15:09:19.780Z,25
2017-07-05T15:10:28.898Z,30
2017-07-05T15:11:37.906Z,60
2017-07-05T15:12:46.920Z,60
2017-07-05T15:13:55.965Z,40
2017-07-05T15:15:05.060Z,55
2017-07-05T15:16:14.217Z,60
2017-07-05T15:17:23.230Z,55
2017-07-05T15:18:32.343Z,35
2017-07-05T15:19:41.351Z,65
2017-07-05T15:20:50.298Z,35
2017-07-05T15:21:59.256Z,30
2017-07-05T15:23:08.325Z,60
2017-07-05T15:24:17.354Z,60
2017-07-05T15:25:26.299Z,55
2017-07-05T15:26:35.356Z,55
2017-07-05T15:27:44.278Z,60
2017-07-05T15:28:53.205Z,60
2017-07-05T15:30:02.128Z,55
2017-07-05T15:31:11.056Z,55
2017-07-05T15:32:19.979Z,60
2017-07-05T15:33:28.910Z,60
2017-07-05T15:34:37.835Z,60
2017-07-05T15:35:46.763Z,70
2017-07-05T15:36:55.699Z,80
2017-07-05T15:38:04.622Z,70
2017-07-05T15:39:13.541Z,70
2017-07-05T15:40:22.457Z,70
2017-07-05T15:41:31.373Z,75
2017-07-05T15:42:40.624Z,75
2017-07-05T15:43:49.547Z,70
2017-07-05T15:44:58.475Z,50
2017-07-05T15:46:07.403Z,60
2017-07-05T15:47:16.332Z,65
2017-07-05T15:48:25.249Z,50
2017-07-05T15:49:34.179Z,60
2017-07-05T15:50:43.105Z,35
2017-07-05T15:51:52.112Z,35
2017-07-05T15:53:01.046Z,40
2017-07-05T15:54:09.957Z,35
2017-07-05T15:55:18.894Z,30
2017-07-05T15:56:27.813Z,55
2017-07-05T15:57:36.742Z,60
2017-07-05T15:58:45.748Z,65
2017-07-05T15:59:54.677Z,60
2017-07-05T16:01:03.600Z,55
2017-07-05T16:02:12.532Z,50
2017-07-05T16:03:21.548Z,45
2017-07-05T16:04:30.467Z,40
2017-07-05T16:05:39.388Z,40
2017-07-05T16:06:48.313Z,40
2017-07-05T16:07:57.243Z,40
2017-07-05T16:09:06.167Z,40
2017-07-05T16:10:15.090Z,35
2017-07-05T16:11:24.007Z,35
2017-07-05T16:12:33.023Z,35
2017-07-05T16:13:41.944Z,35
2017-07-05T16:14:50.871Z,35
2017-07-05T16:15:59.793Z,35
2017-07-05T16:17:08.798Z,10
2017-07-05T16:18:17.720Z,10
2017-07-05T16:19:26.639Z,15
2017-07-05T16:20:35.568Z,35
2017-07-05T16:21:44.491Z,35
2017-07-05T16:22:53.419Z,35
2017-07-05T16:24:02.339Z,35
2017-07-05T16:25:11.262Z,35
2017-07-05T16:26:20.187Z,35
2017-07-05T16:27:29.112Z,30
2017-07-05T16:28:38.037Z,35
2017-07-05T16:29:46.959Z,30
2017-07-05T16:30:55.880Z,30